createdAt,value
2022-09-21T00:01:44.027Z,6.38
2022-09-21T00:04:13.999Z,7.00
2022-09-21T00:06:46.396Z,7.15
2022-09-21T00:09:19.264Z,7.85
2022-09-21T00:11:46.788Z,6.88
2022-09-21T00:14:14.929Z,7.63
2022-09-21T00:16:43.106Z,6.03
2022-09-21T00:19:11.909Z,5.30
2022-09-21T00:21:40.116Z,6.60
2022-09-21T00:24:08.203Z,7.07
2022-09-21T00:26:35.813Z,6.93
2022-09-21T00:29:04.328Z,7.72
2022-09-21T00:31:32.538Z,7.55
2022-09-21T00:34:02.874Z,7.57
2022-09-21T00:36:30.365Z,6.90
2022-09-21T00:39:02.219Z,6.45
2022-09-21T00:44:34.367Z,8.02
2022-09-21T00:47:06.660Z,7.55
2022-09-21T00:49:37.954Z,6.85
2022-09-21T00:52:06.979Z,7.13
2022-09-21T00:54:44.986Z,6.70
2022-09-21T00:57:12.580Z,7.10
2022-09-21T00:59:40.727Z,8.05
2022-09-21T01:02:09.790Z,6.53
2022-09-21T01:04:38.559Z,6.57
2022-09-21T01:07:11.271Z,7.50
2022-09-21T01:09:39.574Z,8.35
2022-09-21T01:12:17.350Z,7.75
2022-09-21T01:14:57.030Z,8.02
2022-09-21T01:17:45.355Z,7.90
2022-09-21T01:20:21.685Z,7.28
2022-09-21T01:23:06.775Z,7.07
2022-09-21T01:25:44.709Z,6.32
2022-09-21T01:28:15.943Z,7.38
2022-09-21T01:30:49.050Z,7.97
2022-09-21T01:33:26.151Z,7.20
2022-09-21T01:36:19.995Z,6.95
2022-09-21T01:38:54.634Z,6.55
2022-09-21T01:41:28.786Z,6.47
2022-09-21T01:44:03.910Z,8.98
2022-09-21T01:46:40.717Z,7.25
2022-09-21T01:49:19.505Z,6.93
2022-09-21T01:51:53.472Z,6.95
2022-09-21T01:54:32.883Z,7.20
2022-09-21T01:57:06.522Z,7.47
2022-09-21T01:59:33.896Z,9.05
2022-09-21T02:02:04.453Z,6.70
2022-09-21T02:04:33.692Z,7.03
2022-09-21T02:07:01.142Z,8.38
2022-09-21T02:09:28.603Z,7.00
2022-09-21T02:11:58.840Z,7.18
2022-09-21T02:14:26.705Z,6.65
2022-09-21T02:16:59.359Z,7.05
2022-09-21T02:22:04.074Z,6.75
2022-09-21T02:24:34.506Z,7.90
2022-09-21T02:27:09.845Z,6.78
2022-09-21T02:29:47.366Z,7.32
2022-09-21T02:32:17.870Z,7.20
2022-09-21T02:34:47.690Z,6.22
2022-09-21T02:37:23.430Z,6.72
2022-09-21T02:40:16.123Z,9.07
2022-09-21T02:42:46.272Z,6.88
2022-09-21T02:45:15.594Z,8.50
2022-09-21T02:47:47.761Z,6.93
2022-09-21T02:50:21.447Z,6.28
2022-09-21T02:52:48.930Z,8.07
2022-09-21T02:55:17.908Z,6.15
2022-09-21T02:57:47.090Z,4.97
2022-09-21T03:00:16.143Z,6.75
2022-09-21T03:02:45.007Z,7.25
2022-09-21T03:05:14.016Z,5.63
2022-09-21T03:07:43.689Z,6.53
2022-09-21T03:10:11.124Z,6.28
2022-09-21T03:12:38.807Z,6.03
2022-09-21T03:15:06.663Z,6.20
2022-09-21T03:17:35.141Z,6.25
2022-09-21T03:20:05.815Z,6.68
2022-09-21T03:22:33.154Z,6.18
2022-09-21T03:25:00.509Z,6.97
2022-09-21T03:27:28.980Z,6.88
2022-09-21T03:30:01.320Z,6.07
2022-09-21T03:32:29.558Z,7.55
2022-09-21T03:34:57.010Z,7.05
2022-09-21T03:37:25.975Z,7.15
2022-09-21T03:39:53.432Z,5.82
2022-09-21T03:42:23.215Z,6.60
2022-09-21T03:44:52.460Z,6.03
2022-09-21T03:47:21.624Z,7.22
2022-09-21T03:49:50.691Z,6.95
2022-09-21T03:52:18.161Z,6.72
2022-09-21T03:54:48.641Z,6.15
2022-09-21T03:57:16.215Z,6.95
2022-09-21T03:59:47.162Z,7.00
2022-09-21T04:02:14.706Z,6.97
2022-09-21T04:04:44.455Z,6.60
2022-09-21T04:07:14.000Z,5.60
2022-09-21T04:09:44.138Z,7.20
2022-09-21T04:12:14.063Z,7.10
2022-09-21T04:14:43.696Z,6.00
2022-09-21T04:17:14.740Z,5.90
2022-09-21T04:19:45.138Z,6.88
2022-09-21T04:22:15.664Z,6.35
2022-09-21T04:24:43.075Z,7.30
2022-09-21T04:27:12.071Z,7.15
2022-09-21T04:29:39.678Z,7.32
2022-09-21T04:32:07.081Z,7.45
2022-09-21T04:34:38.130Z,7.45
2022-09-21T04:37:06.201Z,6.80
2022-09-21T04:39:35.353Z,7.25
2022-09-21T04:42:02.855Z,5.20
2022-09-21T04:44:34.727Z,6.22
2022-09-21T04:47:02.179Z,6.40
2022-09-21T04:49:31.909Z,6.53
2022-09-21T04:51:59.371Z,6.28
2022-09-21T04:54:28.344Z,7.05
2022-09-21T04:56:58.985Z,6.05
2022-09-21T04:59:27.188Z,7.80
2022-09-21T05:01:54.603Z,7.43
2022-09-21T05:04:22.027Z,7.25
2022-09-21T05:06:51.518Z,7.45
2022-09-21T05:09:39.813Z,6.78
2022-09-21T05:12:09.694Z,6.43
2022-09-21T05:14:40.212Z,6.82
2022-09-21T05:17:07.727Z,5.60
2022-09-21T05:19:38.244Z,6.13
2022-09-21T05:22:08.414Z,6.60
2022-09-21T05:24:37.442Z,5.78
2022-09-21T05:27:05.604Z,6.75
2022-09-21T05:29:33.276Z,6.68
2022-09-21T05:32:19.311Z,8.18
2022-09-21T05:34:53.399Z,7.20
2022-09-21T05:37:39.084Z,6.22
2022-09-21T05:40:08.575Z,6.15
2022-09-21T05:42:37.615Z,8.95
2022-09-21T05:45:05.475Z,7.57
2022-09-21T05:47:32.855Z,6.03
2022-09-21T05:50:07.857Z,5.60
2022-09-21T05:52:44.186Z,6.03
2022-09-21T05:55:30.168Z,6.55
2022-09-21T05:58:00.770Z,6.70
2022-09-21T06:00:38.636Z,6.03
2022-09-21T06:03:14.368Z,6.20
2022-09-21T06:05:45.088Z,8.38
2022-09-21T06:08:12.486Z,4.85
2022-09-21T06:10:39.979Z,6.22
2022-09-21T06:13:07.444Z,6.80
2022-09-21T06:15:38.961Z,6.15
2022-09-21T06:18:07.011Z,7.70
2022-09-21T06:20:34.984Z,4.78
2022-09-21T06:23:03.165Z,7.40
2022-09-21T06:25:33.871Z,4.72
2022-09-21T06:28:06.660Z,7.22
2022-09-21T06:30:36.599Z,5.47
2022-09-21T06:33:07.181Z,6.57
2022-09-21T06:35:35.326Z,5.90
2022-09-21T06:38:07.215Z,5.68
2022-09-21T06:40:38.631Z,5.60
2022-09-21T06:43:06.880Z,5.97
2022-09-21T06:45:35.816Z,5.35
2022-09-21T06:48:07.854Z,7.32
2022-09-21T06:50:37.625Z,6.63
2022-09-21T06:53:05.156Z,5.50
2022-09-21T06:55:34.219Z,4.75
2022-09-21T06:58:03.642Z,5.40
2022-09-21T07:00:37.346Z,6.35
2022-09-21T07:03:04.864Z,6.80
2022-09-21T07:05:33.430Z,6.07
2022-09-21T07:08:01.223Z,5.97
2022-09-21T07:10:29.185Z,5.47
2022-09-21T07:12:56.662Z,4.85
2022-09-21T07:15:24.314Z,5.38
2022-09-21T07:18:05.300Z,5.93
2022-09-21T07:20:33.229Z,4.68
2022-09-21T07:23:04.008Z,5.70
2022-09-21T07:25:37.786Z,5.50
2022-09-21T07:28:08.331Z,5.22
2022-09-21T07:30:36.641Z,5.18
2022-09-21T07:33:04.604Z,5.38
2022-09-21T07:35:32.296Z,5.03
2022-09-21T07:38:01.430Z,5.38
2022-09-21T07:40:28.978Z,7.00
2022-09-21T07:43:02.642Z,5.45
2022-09-21T07:45:31.623Z,6.68
2022-09-21T07:48:08.242Z,5.72
2022-09-21T07:50:36.097Z,6.28
2022-09-21T07:53:04.325Z,6.10
2022-09-21T07:55:32.005Z,5.45
2022-09-21T07:58:18.101Z,7.13
2022-09-21T08:00:47.830Z,6.53
2022-09-21T08:03:16.514Z,5.43
2022-09-21T08:05:45.005Z,5.40
2022-09-21T08:08:13.136Z,5.70
2022-09-21T08:10:40.599Z,6.70
2022-09-21T08:13:07.987Z,5.45
2022-09-21T08:15:49.345Z,5.93
2022-09-21T08:18:18.791Z,5.22
2022-09-21T08:20:53.879Z,6.30
2022-09-21T08:23:21.280Z,6.35
2022-09-21T08:25:49.525Z,6.40
2022-09-21T08:28:17.090Z,5.32
2022-09-21T08:30:44.690Z,5.78
2022-09-21T08:33:15.082Z,5.30
2022-09-21T08:35:42.582Z,4.85
2022-09-21T08:38:10.703Z,5.80
2022-09-21T08:40:43.160Z,5.82
2022-09-21T08:43:16.202Z,5.80
2022-09-21T08:45:47.742Z,6.88
2022-09-21T08:48:29.938Z,6.40
2022-09-21T08:51:05.000Z,6.03
2022-09-21T08:53:37.886Z,4.97
2022-09-21T08:56:11.673Z,4.85
2022-09-21T08:58:44.647Z,5.95
2022-09-21T09:01:21.337Z,6.35
2022-09-21T09:03:55.426Z,6.25
2022-09-21T09:06:32.363Z,6.60
2022-09-21T09:09:07.554Z,5.05
2022-09-21T09:11:55.235Z,5.57
2022-09-21T09:14:59.490Z,5.65
2022-09-21T09:17:46.995Z,6.60
2022-09-21T09:20:22.356Z,5.88
2022-09-21T09:23:05.552Z,5.55
2022-09-21T09:25:40.563Z,5.32
2022-09-21T09:28:18.211Z,5.47
2022-09-21T09:30:49.126Z,6.38
2022-09-21T09:33:45.981Z,5.57
2022-09-21T09:36:34.732Z,5.93
2022-09-21T09:39:20.180Z,7.10
2022-09-21T09:42:04.785Z,6.28
2022-09-21T09:44:46.457Z,4.78
2022-09-21T09:47:32.965Z,5.90
2022-09-21T09:50:01.958Z,5.90
2022-09-21T09:52:30.652Z,5.10
2022-09-21T09:55:04.716Z,5.82
2022-09-21T09:57:38.255Z,5.07
2022-09-21T10:00:12.751Z,5.05
2022-09-21T10:03:08.176Z,5.22
2022-09-21T10:05:38.817Z,5.97
2022-09-21T10:08:09.185Z,6.65
2022-09-21T10:10:37.946Z,5.03
2022-09-21T10:13:13.755Z,5.60
2022-09-21T10:15:46.567Z,5.28
2022-09-21T10:18:22.042Z,5.50
2022-09-21T10:21:03.345Z,4.28
2022-09-21T10:23:32.377Z,5.10
2022-09-21T10:26:05.043Z,4.43
2022-09-21T10:31:08.938Z,5.32
2022-09-21T10:33:49.615Z,5.25
2022-09-21T10:36:29.325Z,5.72
2022-09-21T10:39:00.482Z,4.30
2022-09-21T10:41:28.592Z,4.30
2022-09-21T10:43:56.021Z,4.68
2022-09-21T10:46:39.523Z,4.85
2022-09-21T10:49:13.532Z,4.90
2022-09-21T10:51:44.005Z,5.43
2022-09-21T10:54:19.571Z,4.78
2022-09-21T10:57:02.235Z,4.40
2022-09-21T10:59:31.816Z,5.10
2022-09-21T11:02:01.587Z,5.10
2022-09-21T11:04:38.024Z,4.95
2022-09-21T11:07:14.902Z,6.18
2022-09-21T11:09:48.765Z,5.80
2022-09-21T11:12:30.108Z,4.18
2022-09-21T11:14:57.582Z,3.92
2022-09-21T11:17:34.875Z,4.45
2022-09-21T11:20:17.725Z,5.18
2022-09-21T11:23:11.558Z,4.78
2022-09-21T11:25:39.190Z,4.50
2022-09-21T11:28:22.374Z,5.05
2022-09-21T11:30:56.333Z,5.90
2022-09-21T11:33:38.266Z,4.60
2022-09-21T11:36:15.411Z,4.72
2022-09-21T11:38:58.555Z,5.07
2022-09-21T11:41:46.237Z,5.68
2022-09-21T11:44:32.854Z,4.55
2022-09-21T11:47:19.892Z,4.22
2022-09-21T11:50:03.095Z,6.03
2022-09-21T11:52:48.085Z,5.32
2022-09-21T11:55:34.294Z,4.38
2022-09-21T11:58:22.224Z,5.22
2022-09-21T12:00:52.954Z,6.28
2022-09-21T12:03:46.729Z,5.18
2022-09-21T12:06:29.225Z,5.88
2022-09-21T12:09:16.835Z,4.65
2022-09-21T12:11:45.101Z,5.68
2022-09-21T12:14:24.818Z,4.22
2022-09-21T12:16:59.348Z,3.05
2022-09-21T12:19:45.271Z,4.25
2022-09-21T12:22:31.404Z,4.60
2022-09-21T12:25:07.423Z,3.40
2022-09-21T12:27:40.518Z,4.75
2022-09-21T12:30:14.738Z,3.63
2022-09-21T12:32:57.761Z,2.75
2022-09-21T12:38:02.000Z,4.13
2022-09-21T12:40:39.617Z,4.50
2022-09-21T12:43:15.630Z,4.55
2022-09-21T12:45:45.234Z,2.72
2022-09-21T12:48:29.726Z,3.35
2022-09-21T12:51:02.442Z,3.60
2022-09-21T12:53:37.800Z,3.08
2022-09-21T12:58:40.487Z,2.88
2022-09-21T13:01:21.345Z,2.75
2022-09-21T13:04:10.085Z,2.83
2022-09-21T13:06:46.173Z,2.83
2022-09-21T13:09:17.318Z,2.70
2022-09-21T13:12:04.911Z,3.53
2022-09-21T13:14:41.038Z,3.42
2022-09-21T13:17:21.264Z,2.58
2022-09-21T13:19:57.418Z,2.08
2022-09-21T13:22:26.053Z,3.05
2022-09-21T13:25:05.753Z,2.17
2022-09-21T13:27:51.668Z,2.65
2022-09-21T13:30:31.206Z,1.75
2022-09-21T13:33:00.796Z,3.17
2022-09-21T13:35:49.547Z,2.03
2022-09-21T13:38:24.075Z,1.95
2022-09-21T13:40:57.579Z,1.70
2022-09-21T13:43:27.947Z,2.80
2022-09-21T13:46:00.470Z,1.85
2022-09-21T13:51:40.991Z,2.67
2022-09-21T13:54:15.071Z,2.47
2022-09-21T13:56:43.756Z,2.33
2022-09-21T13:59:24.440Z,2.20
2022-09-21T14:01:54.443Z,1.90
2022-09-21T14:04:34.524Z,2.08
2022-09-21T14:07:06.962Z,2.70
2022-09-21T14:09:54.662Z,2.75
2022-09-21T14:12:24.137Z,2.38
2022-09-21T14:15:13.402Z,3.45
2022-09-21T14:17:41.497Z,2.58
2022-09-21T14:20:30.764Z,2.28
2022-09-21T14:23:21.493Z,2.10
2022-09-21T14:25:59.290Z,2.15
2022-09-21T14:28:37.364Z,2.40
2022-09-21T14:31:17.663Z,2.58
2022-09-21T14:33:52.509Z,2.90
2022-09-21T14:36:27.631Z,2.60
2022-09-21T14:39:01.825Z,3.00
2022-09-21T14:41:34.962Z,2.95
2022-09-21T14:44:05.619Z,2.75
2022-09-21T14:46:34.215Z,3.35
2022-09-21T14:49:25.787Z,2.67
2022-09-21T14:52:12.972Z,2.58
2022-09-21T14:55:05.184Z,2.38
2022-09-21T14:57:49.136Z,2.53
2022-09-21T15:00:38.480Z,3.55
2022-09-21T15:03:11.196Z,3.92
2022-09-21T15:05:41.253Z,2.25
2022-09-21T15:08:39.216Z,2.00
2022-09-21T15:11:13.961Z,2.70
2022-09-21T15:14:01.722Z,2.50
2022-09-21T15:16:29.193Z,3.15
2022-09-21T15:19:15.828Z,2.92
2022-09-21T15:21:47.487Z,2.85
2022-09-21T15:24:36.929Z,1.87
2022-09-21T15:27:04.317Z,2.42
2022-09-21T15:29:34.425Z,3.03
2022-09-21T15:32:05.222Z,2.53
2022-09-21T15:34:34.049Z,2.92
2022-09-21T15:37:13.885Z,2.78
2022-09-21T15:39:44.253Z,4.15
2022-09-21T15:42:15.314Z,3.63
2022-09-21T15:44:47.397Z,2.80
2022-09-21T16:13:00.853Z,4.40
2022-09-21T16:20:46.592Z,5.27
2022-09-21T16:23:20.257Z,5.18
2022-09-21T16:25:55.740Z,5.22
2022-09-21T16:28:28.567Z,5.43
2022-09-21T16:30:58.131Z,5.20
2022-09-21T16:41:29.077Z,5.05
2022-09-21T16:43:59.088Z,4.90
2022-09-21T16:46:27.770Z,5.15
2022-09-21T16:48:59.466Z,4.70
2022-09-21T16:51:28.637Z,4.70
2022-09-21T16:53:57.242Z,5.35
2022-09-21T16:56:24.558Z,5.25
2022-09-21T16:58:54.936Z,7.60
2022-09-21T17:01:22.658Z,5.00
2022-09-21T18:31:32.919Z,6.68
2022-09-21T18:34:16.284Z,7.03
2022-09-21T18:36:49.244Z,6.20
2022-09-21T18:39:32.068Z,5.13
2022-09-21T18:42:17.662Z,4.72
2022-09-21T18:44:51.498Z,4.95
2022-09-21T18:47:42.066Z,5.65
2022-09-21T18:50:29.280Z,6.13
2022-09-21T18:52:56.702Z,5.90
2022-09-21T18:55:25.769Z,4.93
2022-09-21T18:57:54.419Z,5.57
2022-09-21T19:00:28.167Z,5.88
2022-09-21T19:03:15.956Z,5.38
2022-09-21T19:05:48.686Z,5.63
2022-09-21T19:08:37.573Z,5.13
2022-09-21T19:11:12.100Z,4.10
2022-09-21T19:13:52.267Z,4.97
2022-09-21T19:16:33.070Z,4.60
2022-09-21T19:19:08.937Z,4.07
2022-09-21T19:21:40.082Z,4.10
2022-09-21T19:24:14.763Z,5.20
2022-09-21T20:04:47.793Z,2.95
2022-09-21T20:07:27.627Z,3.67
2022-09-21T20:10:09.282Z,3.17
2022-09-21T20:12:51.220Z,4.37
2022-09-21T20:15:27.508Z,4.10
2022-09-21T20:18:04.281Z,3.58
2022-09-21T20:20:32.553Z,3.63
2022-09-21T20:23:01.063Z,3.72
2022-09-21T20:25:40.067Z,3.53
2022-09-21T20:28:10.203Z,4.43
2022-09-21T20:30:40.612Z,4.18
2022-09-21T20:33:14.370Z,4.88
2022-09-21T21:05:23.302Z,4.93
2022-09-21T21:07:53.167Z,6.05
2022-09-21T21:10:21.484Z,4.00
2022-09-21T21:12:49.564Z,5.88
2022-09-21T21:15:16.984Z,4.82
2022-09-21T21:17:47.348Z,4.53
2022-09-21T21:20:19.732Z,6.13
2022-09-21T21:25:17.043Z,4.57
2022-09-21T21:27:44.612Z,4.43
2022-09-21T21:30:18.368Z,5.30
2022-09-21T21:32:48.348Z,4.70
2022-09-21T21:35:15.797Z,5.80
2022-09-21T21:37:43.353Z,5.30
2022-09-21T21:40:11.154Z,5.60
2022-09-21T21:42:40.756Z,4.70
2022-09-21T21:45:10.079Z,5.00
2022-09-21T21:47:40.625Z,4.95
2022-09-21T21:50:09.159Z,5.68
2022-09-21T21:52:41.608Z,4.80
2022-09-21T21:57:36.803Z,4.68
2022-09-21T22:00:08.373Z,7.30
2022-09-21T22:02:35.973Z,7.17
2022-09-21T22:05:03.599Z,4.60
2022-09-21T22:07:33.057Z,5.10
2022-09-21T22:10:03.850Z,5.18
2022-09-21T22:12:32.289Z,4.85
2022-09-21T22:15:02.697Z,4.97
2022-09-21T22:17:33.815Z,6.45
2022-09-21T22:20:01.977Z,5.93
2022-09-21T22:22:29.398Z,5.07
2022-09-21T22:24:57.287Z,5.32
2022-09-21T22:27:24.804Z,4.80
2022-09-21T22:29:53.329Z,5.25
2022-09-21T22:32:20.708Z,5.82
2022-09-21T22:34:48.231Z,6.63
2022-09-21T22:37:15.707Z,5.25
2022-09-21T22:39:44.377Z,5.32
2022-09-21T22:42:12.345Z,5.25
2022-09-21T22:44:39.765Z,5.03
2022-09-21T22:47:10.763Z,5.78
2022-09-21T22:49:41.220Z,6.43
2022-09-21T22:52:08.694Z,4.78
2022-09-21T22:54:36.158Z,5.55
2022-09-21T22:57:05.737Z,5.07
2022-09-21T22:59:33.199Z,5.60
2022-09-21T23:02:00.690Z,5.15
2022-09-21T23:04:34.224Z,5.82
2022-09-21T23:07:02.043Z,6.40
2022-09-21T23:09:31.995Z,6.75
2022-09-21T23:12:02.333Z,5.93
2022-09-21T23:14:32.353Z,5.10
2022-09-21T23:17:02.708Z,4.95
2022-09-21T23:19:32.783Z,5.18
2022-09-21T23:22:00.325Z,6.15
2022-09-21T23:24:28.017Z,6.28
2022-09-21T23:26:55.619Z,5.60
2022-09-21T23:29:23.399Z,6.43
2022-09-21T23:31:53.017Z,6.63
2022-09-21T23:34:20.458Z,7.47
2022-09-21T23:36:49.888Z,6.25
2022-09-21T23:39:17.300Z,8.13
2022-09-21T23:41:46.901Z,5.85
2022-09-21T23:44:15.683Z,6.53
2022-09-21T23:46:45.117Z,7.80
2022-09-21T23:49:13.267Z,6.60
2022-09-21T23:51:42.236Z,6.00
2022-09-21T23:54:20.190Z,6.57
2022-09-21T23:56:47.780Z,5.60
2022-09-21T23:59:15.154Z,6.53
